createdAt,value
2017-09-29T00:01:50.972Z,30.37
2017-09-29T00:04:19.271Z,32.13
2017-09-29T00:06:50.409Z,29.87
2017-09-29T00:09:18.669Z,30.00
2017-09-29T00:11:46.942Z,30.27
2017-09-29T00:14:16.852Z,29.37
2017-09-29T00:16:45.656Z,29.90
2017-09-29T00:19:14.759Z,27.17
2017-09-29T00:21:43.375Z,29.20
2017-09-29T00:24:12.604Z,28.67
2017-09-29T00:26:41.002Z,30.03
2017-09-29T00:29:09.599Z,29.67
2017-09-29T00:31:38.343Z,28.57
2017-09-29T00:34:07.041Z,27.90
2017-09-29T00:36:35.691Z,30.33
2017-09-29T00:39:04.759Z,29.30
2017-09-29T00:41:33.699Z,30.33
2017-09-29T00:44:02.248Z,29.07
2017-09-29T00:46:31.334Z,28.53
2017-09-29T00:48:59.703Z,30.60
2017-09-29T00:51:28.465Z,28.57
2017-09-29T00:53:57.179Z,30.57
2017-09-29T00:56:25.914Z,30.70
2017-09-29T00:58:54.301Z,30.57
2017-09-29T01:01:22.816Z,28.17
2017-09-29T01:03:51.181Z,30.37
2017-09-29T01:06:19.576Z,27.80
2017-09-29T01:08:48.011Z,27.50
2017-09-29T01:11:16.537Z,29.10
2017-09-29T01:13:44.975Z,28.70
2017-09-29T01:16:13.585Z,29.20
2017-09-29T01:18:42.169Z,31.07
2017-09-29T01:21:11.290Z,28.57
2017-09-29T01:23:39.716Z,27.07
2017-09-29T01:26:08.138Z,28.07
2017-09-29T01:28:36.526Z,28.70
2017-09-29T01:31:04.907Z,27.70
2017-09-29T01:33:35.079Z,27.23
2017-09-29T01:36:03.559Z,28.80
2017-09-29T01:38:32.319Z,27.10
2017-09-29T01:41:01.052Z,29.90
2017-09-29T01:43:29.500Z,28.57
2017-09-29T01:45:57.991Z,29.70
2017-09-29T01:48:26.439Z,27.97
2017-09-29T01:50:54.979Z,26.20
2017-09-29T01:53:23.680Z,26.43
2017-09-29T01:55:52.122Z,28.83
2017-09-29T01:58:20.703Z,28.60
2017-09-29T02:00:49.879Z,27.13
2017-09-29T02:03:18.735Z,26.23
2017-09-29T02:05:47.191Z,28.83
2017-09-29T02:08:15.585Z,28.13
2017-09-29T02:10:44.022Z,28.70
2017-09-29T02:13:13.483Z,28.13
2017-09-29T02:15:41.987Z,28.67
2017-09-29T02:18:10.435Z,26.97
2017-09-29T02:20:38.883Z,26.67
2017-09-29T02:23:07.431Z,26.40
2017-09-29T02:25:36.318Z,28.43
2017-09-29T02:28:04.960Z,26.90
2017-09-29T02:30:33.387Z,28.70
2017-09-29T02:33:03.356Z,28.23
2017-09-29T02:35:32.266Z,29.83
2017-09-29T02:38:00.752Z,29.70
2017-09-29T02:40:29.215Z,27.27
2017-09-29T02:42:57.918Z,29.43
2017-09-29T02:45:26.407Z,29.33
2017-09-29T02:47:55.084Z,28.00
2017-09-29T02:50:23.775Z,27.87
2017-09-29T02:52:52.900Z,27.20
2017-09-29T02:55:21.555Z,28.90
2017-09-29T02:57:56.487Z,30.00
2017-09-29T03:00:33.518Z,27.30
2017-09-29T03:03:07.816Z,27.57
2017-09-29T03:05:58.253Z,28.73
2017-09-29T03:08:27.208Z,27.33
2017-09-29T03:10:55.880Z,28.73
2017-09-29T03:13:24.202Z,27.33
2017-09-29T03:15:53.099Z,27.40
2017-09-29T03:18:21.419Z,28.93
2017-09-29T03:20:49.776Z,30.17
2017-09-29T03:23:18.199Z,28.27
2017-09-29T03:25:46.552Z,27.17
2017-09-29T03:28:16.361Z,28.77
2017-09-29T03:30:44.718Z,28.93
2017-09-29T03:33:13.324Z,27.67
2017-09-29T03:35:41.675Z,27.50
2017-09-29T03:38:10.187Z,27.40
2017-09-29T03:40:38.631Z,30.50
2017-09-29T03:43:06.916Z,30.97
2017-09-29T03:45:35.256Z,28.00
2017-09-29T03:48:04.418Z,28.10
2017-09-29T03:50:45.731Z,29.77
2017-09-29T03:53:18.311Z,30.10
2017-09-29T03:55:53.363Z,27.90
2017-09-29T03:58:27.255Z,30.07
2017-09-29T04:00:55.682Z,29.73
2017-09-29T04:03:24.130Z,28.17
2017-09-29T04:05:52.903Z,28.57
2017-09-29T04:08:22.481Z,28.50
2017-09-29T04:10:51.049Z,29.60
2017-09-29T04:13:19.855Z,27.70
2017-09-29T04:15:48.473Z,29.07
2017-09-29T04:18:17.537Z,29.20
2017-09-29T04:20:45.945Z,27.00
2017-09-29T04:23:14.367Z,27.00
2017-09-29T04:25:43.084Z,27.37
2017-09-29T04:28:11.663Z,27.90
2017-09-29T04:30:40.355Z,27.30
2017-09-29T04:33:09.039Z,26.93
2017-09-29T04:35:37.473Z,28.63
2017-09-29T04:38:05.876Z,28.07
2017-09-29T04:40:34.971Z,29.87
2017-09-29T04:43:03.376Z,28.50
2017-09-29T04:45:32.823Z,28.87
2017-09-29T04:48:01.183Z,28.07
2017-09-29T04:50:29.644Z,28.30
2017-09-29T04:52:58.223Z,28.33
2017-09-29T04:55:26.845Z,28.70
2017-09-29T04:57:55.291Z,29.37
2017-09-29T05:00:23.762Z,28.07
2017-09-29T05:02:52.128Z,29.90
2017-09-29T05:05:20.956Z,28.90
2017-09-29T05:07:49.537Z,27.87
2017-09-29T05:10:18.109Z,27.53
2017-09-29T05:12:46.580Z,28.70
2017-09-29T05:15:14.955Z,30.07
2017-09-29T05:17:43.435Z,27.50
2017-09-29T05:20:11.814Z,29.80
2017-09-29T05:22:40.238Z,28.30
2017-09-29T05:25:10.611Z,29.50
2017-09-29T05:27:38.971Z,32.07
2017-09-29T05:30:08.119Z,29.60
2017-09-29T05:32:36.703Z,30.77
2017-09-29T05:35:05.080Z,29.97
2017-09-29T05:37:33.664Z,28.23
2017-09-29T05:40:02.111Z,33.83
2017-09-29T05:42:30.500Z,31.83
2017-09-29T05:44:58.901Z,29.30
2017-09-29T05:47:27.639Z,32.73
2017-09-29T05:49:56.736Z,34.70
2017-09-29T05:52:25.111Z,29.73
2017-09-29T05:54:53.578Z,32.57
2017-09-29T05:57:21.971Z,30.40
2017-09-29T05:59:51.243Z,30.10
2017-09-29T06:02:19.680Z,31.43
2017-09-29T06:04:48.135Z,32.30
2017-09-29T06:07:16.459Z,32.77
2017-09-29T06:09:44.887Z,30.47
2017-09-29T06:12:13.651Z,30.73
2017-09-29T06:14:41.952Z,37.13
2017-09-29T06:17:11.223Z,33.67
2017-09-29T06:19:39.887Z,34.20
2017-09-29T06:22:08.189Z,33.60
2017-09-29T06:24:36.596Z,32.97
2017-09-29T06:27:05.147Z,33.93
2017-09-29T06:29:33.453Z,33.50
2017-09-29T06:32:02.963Z,32.70
2017-09-29T06:34:32.179Z,32.90
2017-09-29T06:37:00.708Z,29.80
2017-09-29T06:39:29.032Z,32.50
2017-09-29T06:41:58.259Z,33.80
2017-09-29T06:44:26.607Z,32.93
2017-09-29T06:46:56.123Z,35.03
2017-09-29T06:49:25.218Z,32.30
2017-09-29T06:51:54.349Z,33.77
2017-09-29T06:54:22.734Z,32.50
2017-09-29T06:56:51.067Z,34.77
2017-09-29T06:59:20.143Z,29.60
2017-09-29T07:01:48.761Z,31.83
2017-09-29T07:04:17.156Z,32.93
2017-09-29T07:06:46.111Z,34.87
2017-09-29T07:09:14.486Z,31.27
2017-09-29T07:11:43.555Z,31.30
2017-09-29T07:14:12.811Z,34.37
2017-09-29T07:16:41.167Z,32.80
2017-09-29T07:19:10.253Z,33.30
2017-09-29T07:21:38.615Z,36.47
2017-09-29T07:24:07.180Z,35.20
2017-09-29T07:26:41.415Z,29.43
2017-09-29T07:29:15.110Z,33.70
2017-09-29T07:31:50.120Z,30.97
2017-09-29T07:34:18.527Z,30.47
2017-09-29T07:36:46.881Z,35.60
2017-09-29T07:39:15.252Z,31.90
2017-09-29T07:41:43.642Z,32.50
2017-09-29T07:44:11.999Z,31.83
2017-09-29T07:46:40.702Z,32.30
2017-09-29T07:49:09.512Z,35.87
2017-09-29T07:51:37.957Z,33.93
2017-09-29T07:54:06.267Z,35.10
2017-09-29T07:56:34.606Z,30.83
2017-09-29T07:59:03.842Z,31.80
2017-09-29T08:01:32.224Z,35.67
2017-09-29T08:04:00.573Z,32.77
2017-09-29T08:06:28.892Z,29.13
2017-09-29T08:08:57.337Z,35.30
2017-09-29T08:11:26.085Z,35.30
2017-09-29T08:13:54.494Z,36.10
2017-09-29T08:16:22.795Z,34.30
2017-09-29T08:18:51.144Z,33.40
2017-09-29T08:21:20.235Z,31.13
2017-09-29T08:23:49.410Z,34.53
2017-09-29T08:26:17.960Z,38.57
2017-09-29T08:28:46.289Z,33.17
2017-09-29T08:31:15.522Z,37.07
2017-09-29T08:33:43.987Z,30.47
2017-09-29T08:36:12.624Z,30.57
2017-09-29T08:38:40.962Z,31.80
2017-09-29T08:41:09.283Z,34.80
2017-09-29T08:43:37.604Z,31.10
2017-09-29T08:46:05.922Z,36.23
2017-09-29T08:48:34.315Z,33.10
2017-09-29T08:51:02.646Z,31.23
2017-09-29T08:53:30.971Z,34.33
2017-09-29T08:55:59.503Z,34.43
2017-09-29T08:58:27.824Z,32.07
2017-09-29T09:00:56.668Z,31.07
2017-09-29T09:03:25.010Z,35.00
2017-09-29T09:05:53.446Z,35.57
2017-09-29T09:08:22.045Z,33.13
2017-09-29T09:10:50.545Z,34.43
2017-09-29T09:13:18.896Z,39.33
2017-09-29T09:15:47.258Z,34.57
2017-09-29T09:18:15.578Z,33.87
2017-09-29T09:20:44.292Z,33.23
2017-09-29T09:23:13.535Z,31.70
2017-09-29T09:25:41.893Z,31.97
2017-09-29T09:28:11.139Z,30.70
2017-09-29T09:30:39.613Z,33.03
2017-09-29T09:33:07.986Z,31.80
2017-09-29T09:35:36.678Z,35.23
2017-09-29T09:38:05.019Z,33.27
2017-09-29T09:40:33.328Z,35.50
2017-09-29T09:43:01.784Z,30.60
2017-09-29T09:45:30.131Z,31.40
2017-09-29T09:47:59.259Z,32.30
2017-09-29T09:50:27.604Z,31.00
2017-09-29T09:52:55.946Z,32.03
2017-09-29T09:55:24.391Z,30.43
2017-09-29T09:57:52.715Z,30.17
2017-09-29T10:00:21.595Z,34.30
2017-09-29T10:02:50.048Z,32.53
2017-09-29T10:05:18.591Z,30.07
2017-09-29T10:07:46.914Z,34.73
2017-09-29T10:10:15.463Z,37.27
2017-09-29T10:12:44.522Z,34.43
2017-09-29T10:15:13.203Z,37.23
2017-09-29T10:17:41.550Z,33.00
2017-09-29T10:20:09.843Z,35.73
2017-09-29T10:22:38.628Z,32.57
2017-09-29T10:25:07.243Z,38.90
2017-09-29T10:27:35.648Z,32.30
2017-09-29T10:30:05.401Z,30.30
2017-09-29T10:32:33.727Z,34.10
2017-09-29T10:35:02.166Z,34.27
2017-09-29T10:37:30.668Z,29.17
2017-09-29T10:39:58.972Z,33.83
2017-09-29T10:42:27.655Z,31.37
2017-09-29T10:44:55.962Z,33.90
2017-09-29T10:47:24.302Z,34.40
2017-09-29T10:49:52.737Z,38.17
2017-09-29T10:52:21.062Z,35.37
2017-09-29T10:54:49.343Z,29.97
2017-09-29T10:57:17.696Z,30.67
2017-09-29T10:59:46.307Z,35.27
2017-09-29T11:02:14.599Z,32.33
2017-09-29T11:04:42.945Z,31.73
2017-09-29T11:07:11.543Z,34.60
2017-09-29T11:09:39.868Z,30.57
2017-09-29T11:12:08.191Z,30.63
2017-09-29T11:14:36.524Z,28.80
2017-09-29T11:17:09.733Z,27.47
2017-09-29T11:19:42.656Z,30.70
2017-09-29T11:22:11.169Z,30.87
2017-09-29T11:24:40.524Z,26.30
2017-09-29T11:27:09.411Z,29.23
2017-09-29T11:29:37.679Z,29.00
2017-09-29T11:32:06.023Z,31.23
2017-09-29T11:34:35.210Z,32.60
2017-09-29T11:37:03.523Z,27.50
2017-09-29T11:39:31.844Z,29.60
2017-09-29T11:42:00.347Z,27.90
2017-09-29T11:44:29.449Z,26.70
2017-09-29T11:46:58.702Z,24.67
2017-09-29T11:49:27.767Z,26.63
2017-09-29T11:51:56.067Z,27.40
2017-09-29T11:54:24.372Z,27.10
2017-09-29T11:56:52.711Z,27.20
2017-09-29T11:59:21.096Z,27.60
2017-09-29T12:01:49.461Z,31.03
2017-09-29T12:04:17.865Z,26.07
2017-09-29T12:06:46.199Z,24.87
2017-09-29T12:09:15.302Z,21.93
2017-09-29T12:11:44.369Z,26.67
2017-09-29T12:14:13.438Z,22.13
2017-09-29T12:16:41.764Z,19.27
2017-09-29T12:19:10.792Z,23.30
2017-09-29T12:21:39.096Z,22.47
2017-09-29T12:24:08.535Z,22.00
2017-09-29T12:26:36.890Z,25.40
2017-09-29T12:29:05.430Z,21.40
2017-09-29T12:31:33.998Z,24.77
2017-09-29T12:34:02.291Z,25.33
2017-09-29T12:36:30.631Z,26.30
2017-09-29T12:38:59.738Z,22.37
2017-09-29T12:41:28.983Z,26.57
2017-09-29T12:43:57.447Z,29.90
2017-09-29T12:46:25.758Z,24.70
2017-09-29T12:48:54.068Z,28.73
2017-09-29T12:51:23.702Z,28.50
2017-09-29T12:53:52.037Z,25.87
2017-09-29T12:56:20.334Z,28.67
2017-09-29T12:58:49.371Z,27.53
2017-09-29T13:01:18.135Z,24.07
2017-09-29T13:03:46.474Z,29.53
2017-09-29T13:06:14.997Z,28.37
2017-09-29T13:08:43.271Z,30.10
2017-09-29T13:11:11.955Z,26.60
2017-09-29T13:13:40.251Z,26.50
2017-09-29T13:16:08.857Z,26.33
2017-09-29T13:18:37.199Z,27.17
2017-09-29T13:21:06.228Z,23.87
2017-09-29T13:23:34.747Z,23.17
2017-09-29T13:26:03.043Z,21.10
2017-09-29T13:28:31.307Z,22.97
2017-09-29T13:31:00.360Z,25.90
2017-09-29T13:33:28.668Z,24.10
2017-09-29T13:35:57.204Z,22.27
2017-09-29T13:38:25.571Z,22.33
2017-09-29T13:40:55.247Z,23.20
2017-09-29T13:43:24.294Z,24.33
2017-09-29T13:45:52.987Z,25.10
2017-09-29T13:48:21.310Z,23.47
2017-09-29T13:50:50.457Z,22.43
2017-09-29T13:53:18.821Z,21.57
2017-09-29T13:55:47.162Z,21.70
2017-09-29T13:58:16.250Z,20.23
2017-09-29T14:00:45.439Z,19.47
2017-09-29T14:03:13.985Z,18.03
2017-09-29T14:05:42.314Z,18.13
2017-09-29T14:08:11.619Z,19.50
2017-09-29T14:10:41.082Z,23.27
2017-09-29T14:13:09.663Z,19.40
2017-09-29T14:15:40.213Z,20.73
2017-09-29T14:18:09.186Z,22.17
2017-09-29T14:20:38.284Z,21.43
2017-09-29T14:23:06.970Z,22.73
2017-09-29T14:25:35.659Z,21.30
2017-09-29T14:28:04.342Z,21.40
2017-09-29T14:30:32.824Z,21.53
2017-09-29T14:33:01.307Z,20.37
2017-09-29T14:35:29.598Z,21.80
2017-09-29T14:37:58.066Z,22.30
2017-09-29T14:40:26.955Z,20.07
2017-09-29T14:42:55.643Z,22.73
2017-09-29T14:45:23.971Z,24.07
2017-09-29T14:47:53.223Z,19.90
2017-09-29T14:50:21.499Z,20.70
2017-09-29T14:52:49.792Z,20.03
2017-09-29T14:55:18.222Z,21.70
2017-09-29T14:57:46.531Z,17.60
2017-09-29T15:00:14.963Z,16.87
2017-09-29T15:02:43.546Z,17.60
2017-09-29T15:05:12.587Z,17.27
2017-09-29T15:07:40.910Z,20.43
2017-09-29T15:10:09.359Z,17.50
2017-09-29T15:12:37.619Z,20.17
2017-09-29T15:15:05.953Z,18.57
2017-09-29T15:17:35.022Z,20.00
2017-09-29T15:20:03.706Z,18.70
2017-09-29T15:22:32.029Z,17.70
2017-09-29T15:25:00.348Z,16.73
2017-09-29T15:27:28.923Z,16.60
2017-09-29T15:29:57.372Z,17.00
2017-09-29T15:32:25.670Z,18.93
2017-09-29T15:34:54.033Z,19.40
2017-09-29T15:37:22.614Z,18.77
2017-09-29T15:39:51.244Z,17.80
2017-09-29T15:42:19.612Z,18.50
2017-09-29T15:44:47.974Z,17.57
2017-09-29T15:47:16.413Z,19.43
2017-09-29T15:49:45.655Z,20.70
2017-09-29T15:52:14.155Z,18.43
2017-09-29T15:54:42.503Z,19.70
2017-09-29T15:57:10.861Z,17.87
2017-09-29T15:59:39.791Z,20.50
2017-09-29T16:02:08.143Z,21.23
2017-09-29T16:04:37.210Z,19.07
2017-09-29T16:07:05.579Z,24.20
2017-09-29T16:09:33.910Z,24.27
2017-09-29T16:12:02.233Z,24.97
2017-09-29T16:14:30.898Z,26.90
2017-09-29T16:16:59.392Z,24.80
2017-09-29T16:19:27.711Z,22.50
2017-09-29T16:21:57.202Z,22.83
2017-09-29T16:24:25.523Z,22.47
2017-09-29T16:26:53.854Z,24.27
2017-09-29T16:29:22.955Z,23.60
2017-09-29T16:31:51.275Z,27.40
2017-09-29T16:34:19.651Z,24.77
2017-09-29T16:36:47.979Z,27.07
2017-09-29T16:39:16.283Z,27.00
2017-09-29T16:41:44.642Z,26.37
2017-09-29T16:44:14.317Z,28.70
2017-09-29T16:46:42.629Z,29.37
2017-09-29T16:49:11.081Z,26.77
2017-09-29T16:51:39.765Z,27.97
2017-09-29T16:54:08.257Z,29.50
2017-09-29T16:56:37.187Z,28.70
2017-09-29T16:59:07.005Z,29.93
2017-09-29T17:01:35.351Z,30.80
2017-09-29T17:04:04.022Z,30.33
2017-09-29T17:06:32.870Z,31.83
2017-09-29T17:09:01.199Z,29.53
2017-09-29T17:11:29.494Z,29.33
2017-09-29T17:13:57.819Z,30.57
2017-09-29T17:16:26.136Z,26.80
2017-09-29T17:18:54.484Z,31.93
2017-09-29T17:21:22.807Z,31.77
2017-09-29T17:23:51.134Z,33.57
2017-09-29T17:26:19.533Z,35.50
2017-09-29T17:28:48.303Z,34.03
2017-09-29T17:31:16.668Z,30.83
2017-09-29T17:33:45.008Z,34.20
2017-09-29T17:36:13.458Z,30.73
2017-09-29T17:38:41.850Z,28.87
2017-09-29T17:41:10.391Z,31.87
2017-09-29T17:43:38.736Z,32.27
2017-09-29T17:46:07.224Z,30.77
2017-09-29T17:48:35.620Z,31.83
2017-09-29T17:51:03.971Z,29.17
2017-09-29T17:53:33.511Z,29.33
2017-09-29T17:56:01.928Z,28.53
2017-09-29T17:58:30.261Z,28.07
2017-09-29T18:00:58.604Z,27.97
2017-09-29T18:03:27.167Z,26.57
2017-09-29T18:05:55.516Z,26.73
2017-09-29T18:08:24.129Z,26.63
2017-09-29T18:10:53.327Z,28.47
2017-09-29T18:13:22.935Z,29.00
2017-09-29T18:15:52.440Z,32.37
2017-09-29T18:18:21.746Z,30.73
2017-09-29T18:20:51.043Z,36.40
2017-09-29T18:23:20.343Z,31.07
2017-09-29T18:25:49.643Z,30.80
2017-09-29T18:28:18.944Z,36.53
2017-09-29T18:30:48.374Z,33.07
2017-09-29T18:33:17.340Z,35.77
2017-09-29T18:35:46.470Z,29.40
2017-09-29T18:38:15.740Z,30.57
2017-09-29T18:40:44.646Z,30.37
2017-09-29T18:43:14.388Z,28.73
2017-09-29T18:45:43.539Z,27.00
2017-09-29T18:48:13.456Z,28.80
2017-09-29T18:50:42.559Z,30.60
2017-09-29T18:53:13.490Z,29.67
2017-09-29T18:55:42.382Z,29.60
2017-09-29T18:58:11.273Z,31.13
2017-09-29T19:00:39.589Z,31.60
2017-09-29T19:03:08.151Z,31.03
2017-09-29T19:05:36.698Z,31.90
2017-09-29T19:08:05.003Z,30.67
2017-09-29T19:10:33.328Z,29.17
2017-09-29T19:13:02.390Z,28.23
2017-09-29T19:15:30.822Z,29.07
2017-09-29T19:17:59.162Z,27.17
2017-09-29T19:20:27.823Z,25.70
2017-09-29T19:22:56.140Z,25.67
2017-09-29T19:25:25.183Z,26.07
2017-09-29T19:27:53.499Z,25.10
2017-09-29T19:30:21.944Z,25.10
2017-09-29T19:32:50.253Z,23.43
2017-09-29T19:35:18.728Z,24.03
2017-09-29T19:37:46.994Z,22.57
2017-09-29T19:40:15.667Z,24.07
2017-09-29T19:42:44.132Z,22.20
2017-09-29T19:45:12.515Z,24.53
2017-09-29T19:47:40.808Z,21.97
2017-09-29T19:50:09.107Z,22.67
2017-09-29T19:52:37.432Z,21.40
2017-09-29T19:55:05.716Z,23.17
2017-09-29T19:57:34.132Z,23.53
2017-09-29T20:00:02.435Z,24.20
2017-09-29T20:02:32.229Z,21.80
2017-09-29T20:05:00.509Z,23.57
2017-09-29T20:07:28.803Z,22.37
2017-09-29T20:09:57.822Z,22.83
2017-09-29T20:12:26.128Z,25.30
2017-09-29T20:14:54.422Z,24.63
2017-09-29T20:17:37.610Z,24.37
2017-09-29T20:20:06.131Z,24.80
2017-09-29T20:22:34.434Z,25.40
2017-09-29T20:25:03.052Z,24.27
2017-09-29T20:27:31.384Z,24.07
2017-09-29T20:29:59.722Z,23.80
2017-09-29T20:32:28.040Z,23.30
2017-09-29T20:34:56.597Z,23.77
2017-09-29T20:37:24.937Z,23.63
2017-09-29T20:39:53.493Z,22.93
2017-09-29T20:42:21.837Z,23.00
2017-09-29T20:44:50.283Z,24.63
2017-09-29T20:47:18.605Z,23.83
2017-09-29T20:49:47.444Z,24.63
2017-09-29T20:52:15.909Z,24.00
2017-09-29T20:54:44.407Z,22.50
2017-09-29T20:57:12.932Z,24.53
2017-09-29T20:59:41.281Z,23.10
2017-09-29T21:02:09.828Z,24.30
2017-09-29T21:04:38.377Z,22.53
2017-09-29T21:07:06.721Z,24.40
2017-09-29T21:09:35.341Z,22.37
2017-09-29T21:12:03.995Z,22.87
2017-09-29T21:14:32.620Z,21.90
2017-09-29T21:17:00.944Z,22.30
2017-09-29T21:19:29.459Z,22.40
2017-09-29T21:21:57.783Z,21.17
2017-09-29T21:24:26.132Z,20.33
2017-09-29T21:26:54.428Z,21.20
2017-09-29T21:29:23.099Z,21.80
2017-09-29T21:31:51.424Z,21.80
2017-09-29T21:34:20.441Z,20.93
2017-09-29T21:36:48.743Z,21.47
2017-09-29T21:39:17.192Z,23.23
2017-09-29T21:41:45.750Z,20.53
2017-09-29T21:44:14.803Z,19.33
2017-09-29T21:46:43.385Z,22.00
2017-09-29T21:49:11.722Z,20.47
2017-09-29T21:51:40.907Z,21.73
2017-09-29T21:54:09.206Z,19.87
2017-09-29T21:56:37.799Z,19.27
2017-09-29T21:59:06.383Z,20.90
2017-09-29T22:01:34.675Z,20.07
2017-09-29T22:04:03.215Z,21.17
2017-09-29T22:06:32.334Z,23.00
2017-09-29T22:09:00.655Z,19.60
2017-09-29T22:11:28.975Z,20.43
2017-09-29T22:13:57.742Z,19.50
2017-09-29T22:16:26.042Z,20.30
2017-09-29T22:18:55.091Z,21.87
2017-09-29T22:21:23.415Z,22.30
2017-09-29T22:23:52.462Z,19.23
2017-09-29T22:26:20.747Z,19.73
2017-09-29T22:28:49.092Z,19.70
2017-09-29T22:34:01.114Z,19.60
2017-09-29T22:36:30.383Z,20.10
2017-09-29T22:38:58.689Z,19.60
2017-09-29T22:41:27.011Z,19.00
2017-09-29T22:43:55.361Z,19.13
2017-09-29T22:46:23.896Z,18.17
2017-09-29T22:48:53.014Z,19.00
2017-09-29T22:51:21.419Z,21.03
2017-09-29T22:53:49.864Z,21.97
2017-09-29T22:56:18.791Z,19.90
2017-09-29T22:58:47.483Z,20.30
2017-09-29T23:01:15.826Z,19.90
2017-09-29T23:03:44.230Z,19.37
2017-09-29T23:06:12.957Z,17.70
2017-09-29T23:08:41.299Z,19.10
2017-09-29T23:11:09.654Z,18.70
2017-09-29T23:13:38.008Z,18.70
2017-09-29T23:16:07.225Z,18.93
2017-09-29T23:18:35.822Z,19.50
2017-09-29T23:21:04.470Z,18.50
2017-09-29T23:23:32.794Z,18.20
2017-09-29T23:26:01.160Z,17.60
2017-09-29T23:28:29.508Z,19.67
2017-09-29T23:30:58.735Z,18.13
2017-09-29T23:33:27.081Z,19.03
2017-09-29T23:35:55.387Z,19.33
2017-09-29T23:38:24.146Z,19.00
2017-09-29T23:40:52.479Z,18.57
2017-09-29T23:43:21.217Z,19.00
2017-09-29T23:45:50.406Z,19.77
2017-09-29T23:48:18.738Z,18.63
2017-09-29T23:50:47.049Z,18.60
2017-09-29T23:53:15.487Z,19.53
2017-09-29T23:55:44.195Z,19.93
2017-09-29T23:58:12.527Z,19.27
